sensor_id;sensor_type;location;lat;lon;timestamp;temperature;humidity
73133;DHT22;61320;52.008;4.530;2023-03-01T00:01:31;2.50;72.31
73133;DHT22;61320;52.008;4.530;2023-03-01T00:03:58;2.48;72.26
73133;DHT22;61320;52.008;4.530;2023-03-01T00:06:25;2.46;72.37
73133;DHT22;61320;52.008;4.530;2023-03-01T00:08:51;2.46;72.46
73133;DHT22;61320;52.008;4.530;2023-03-01T00:11:31;2.46;72.52
73133;DHT22;61320;52.008;4.530;2023-03-01T00:14:00;2.45;72.56
73133;DHT22;61320;52.008;4.530;2023-03-01T00:16:34;2.45;72.53
73133;DHT22;61320;52.008;4.530;2023-03-01T00:19:01;2.44;72.54
73133;DHT22;61320;52.008;4.530;2023-03-01T00:21:28;2.42;72.57
73133;DHT22;61320;52.008;4.530;2023-03-01T00:23:55;2.44;72.72
73133;DHT22;61320;52.008;4.530;2023-03-01T00:26:22;2.48;72.81
73133;DHT22;61320;52.008;4.530;2023-03-01T00:28:49;2.46;73.09
73133;DHT22;61320;52.008;4.530;2023-03-01T00:31:18;2.55;73.08
73133;DHT22;61320;52.008;4.530;2023-03-01T00:33:45;2.58;73.22
73133;DHT22;61320;52.008;4.530;2023-03-01T00:36:13;2.60;73.33
73133;DHT22;61320;52.008;4.530;2023-03-01T00:38:42;2.63;73.30
73133;DHT22;61320;52.008;4.530;2023-03-01T00:41:11;2.65;73.31
73133;DHT22;61320;52.008;4.530;2023-03-01T00:43:37;2.66;73.21
73133;DHT22;61320;52.008;4.530;2023-03-01T00:46:07;2.69;73.31
73133;DHT22;61320;52.008;4.530;2023-03-01T00:48:33;2.71;73.28
73133;DHT22;61320;52.008;4.530;2023-03-01T00:53:35;2.73;73.14
73133;DHT22;61320;52.008;4.530;2023-03-01T00:56:02;2.76;72.97
73133;DHT22;61320;52.008;4.530;2023-03-01T00:58:28;2.71;72.97
73133;DHT22;61320;52.008;4.530;2023-03-01T01:00:54;2.71;72.97
73133;DHT22;61320;52.008;4.530;2023-03-01T01:03:20;2.71;73.02
73133;DHT22;61320;52.008;4.530;2023-03-01T01:05:45;2.71;73.04
73133;DHT22;61320;52.008;4.530;2023-03-01T01:08:11;2.72;73.00
73133;DHT22;61320;52.008;4.530;2023-03-01T01:10:37;2.69;72.90
73133;DHT22;61320;52.008;4.530;2023-03-01T01:13:04;2.69;72.93
73133;DHT22;61320;52.008;4.530;2023-03-01T01:15:34;2.69;73.04
73133;DHT22;61320;52.008;4.530;2023-03-01T01:18:00;2.66;72.88
73133;DHT22;61320;52.008;4.530;2023-03-01T01:20:26;2.67;72.90
73133;DHT22;61320;52.008;4.530;2023-03-01T01:22:51;2.67;72.91
73133;DHT22;61320;52.008;4.530;2023-03-01T01:25:17;2.67;73.07
73133;DHT22;61320;52.008;4.530;2023-03-01T01:27:42;2.69;73.00
73133;DHT22;61320;52.008;4.530;2023-03-01T01:30:08;2.65;72.87
73133;DHT22;61320;52.008;4.530;2023-03-01T01:32:34;2.62;72.89
73133;DHT22;61320;52.008;4.530;2023-03-01T01:34:59;2.59;72.88
73133;DHT22;61320;52.008;4.530;2023-03-01T01:37:25;2.59;72.94
73133;DHT22;61320;52.008;4.530;2023-03-01T01:40:00;2.59;73.00
73133;DHT22;61320;52.008;4.530;2023-03-01T01:42:27;2.59;72.97
73133;DHT22;61320;52.008;4.530;2023-03-01T01:48:10;2.58;73.05
73133;DHT22;61320;52.008;4.530;2023-03-01T01:50:40;2.58;73.07
73133;DHT22;61320;52.008;4.530;2023-03-01T01:53:13;2.58;73.13
73133;DHT22;61320;52.008;4.530;2023-03-01T01:55:44;2.59;73.17
73133;DHT22;61320;52.008;4.530;2023-03-01T01:58:15;2.56;73.17
73133;DHT22;61320;52.008;4.530;2023-03-01T02:00:43;2.55;73.22
73133;DHT22;61320;52.008;4.530;2023-03-01T02:03:17;2.56;73.15
73133;DHT22;61320;52.008;4.530;2023-03-01T02:06:02;2.55;73.19
73133;DHT22;61320;52.008;4.530;2023-03-01T02:08:31;2.56;73.21
73133;DHT22;61320;52.008;4.530;2023-03-01T02:10:59;2.55;73.24
73133;DHT22;61320;52.008;4.530;2023-03-01T02:13:26;2.55;73.18
73133;DHT22;61320;52.008;4.530;2023-03-01T02:15:52;2.55;73.25
73133;DHT22;61320;52.008;4.530;2023-03-01T02:18:21;2.58;73.24
73133;DHT22;61320;52.008;4.530;2023-03-01T02:21:17;2.55;73.17
73133;DHT22;61320;52.008;4.530;2023-03-01T02:23:46;2.55;73.26
73133;DHT22;61320;52.008;4.530;2023-03-01T02:26:25;2.52;73.16
73133;DHT22;61320;52.008;4.530;2023-03-01T02:28:53;2.49;73.13
73133;DHT22;61320;52.008;4.530;2023-03-01T02:31:21;2.49;73.17
73133;DHT22;61320;52.008;4.530;2023-03-01T02:34:07;2.49;73.25
73133;DHT22;61320;52.008;4.530;2023-03-01T02:36:48;2.50;73.22
73133;DHT22;61320;52.008;4.530;2023-03-01T02:39:18;2.48;73.18
73133;DHT22;61320;52.008;4.530;2023-03-01T02:41:52;2.49;73.31
73133;DHT22;61320;52.008;4.530;2023-03-01T02:44:19;2.49;73.27
73133;DHT22;61320;52.008;4.530;2023-03-01T02:46:52;2.50;73.18
73133;DHT22;61320;52.008;4.530;2023-03-01T02:52:20;2.49;73.20
73133;DHT22;61320;52.008;4.530;2023-03-01T02:57:28;2.46;73.22
73133;DHT22;61320;52.008;4.530;2023-03-01T02:59:57;2.46;73.15
73133;DHT22;61320;52.008;4.530;2023-03-01T03:02:27;2.45;73.06
73133;DHT22;61320;52.008;4.530;2023-03-01T03:05:10;2.49;73.10
73133;DHT22;61320;52.008;4.530;2023-03-01T03:07:38;2.44;73.12
73133;DHT22;61320;52.008;4.530;2023-03-01T03:10:07;2.48;73.13
73133;DHT22;61320;52.008;4.530;2023-03-01T03:12:32;2.45;73.06
73133;DHT22;61320;52.008;4.530;2023-03-01T03:14:58;2.42;73.02
73133;DHT22;61320;52.008;4.530;2023-03-01T03:17:23;2.42;73.13
73133;DHT22;61320;52.008;4.530;2023-03-01T03:19:49;2.42;73.18
73133;DHT22;61320;52.008;4.530;2023-03-01T03:22:14;2.41;73.19
73133;DHT22;61320;52.008;4.530;2023-03-01T03:24:40;2.39;73.12
73133;DHT22;61320;52.008;4.530;2023-03-01T03:27:07;2.37;73.12
73133;DHT22;61320;52.008;4.530;2023-03-01T03:29:33;2.35;73.09
73133;DHT22;61320;52.008;4.530;2023-03-01T03:31:59;2.35;73.12
73133;DHT22;61320;52.008;4.530;2023-03-01T03:34:24;2.34;73.03
73133;DHT22;61320;52.008;4.530;2023-03-01T03:36:56;2.37;73.02
73133;DHT22;61320;52.008;4.530;2023-03-01T03:39:26;2.32;73.02
73133;DHT22;61320;52.008;4.530;2023-03-01T03:41:53;2.28;73.15
73133;DHT22;61320;52.008;4.530;2023-03-01T03:44:19;2.31;73.28
73133;DHT22;61320;52.008;4.530;2023-03-01T03:46:44;2.32;73.30
73133;DHT22;61320;52.008;4.530;2023-03-01T03:49:10;2.29;73.21
73133;DHT22;61320;52.008;4.530;2023-03-01T03:51:35;2.28;73.21
73133;DHT22;61320;52.008;4.530;2023-03-01T03:54:01;2.31;73.28
73133;DHT22;61320;52.008;4.530;2023-03-01T03:56:26;2.29;73.31
73133;DHT22;61320;52.008;4.530;2023-03-01T03:58:52;2.25;73.37
73133;DHT22;61320;52.008;4.530;2023-03-01T04:01:18;2.28;73.49
73133;DHT22;61320;52.008;4.530;2023-03-01T04:03:43;2.29;73.41
73133;DHT22;61320;52.008;4.530;2023-03-01T04:06:13;2.31;73.59
73133;DHT22;61320;52.008;4.530;2023-03-01T04:08:40;2.34;73.55
73133;DHT22;61320;52.008;4.530;2023-03-01T04:11:06;2.34;73.46
73133;DHT22;61320;52.008;4.530;2023-03-01T04:13:52;2.35;73.55
73133;DHT22;61320;52.008;4.530;2023-03-01T04:16:18;2.37;73.61
73133;DHT22;61320;52.008;4.530;2023-03-01T04:18:44;2.38;73.70
73133;DHT22;61320;52.008;4.530;2023-03-01T04:21:10;2.38;73.70
73133;DHT22;61320;52.008;4.530;2023-03-01T04:23:36;2.45;73.67
73133;DHT22;61320;52.008;4.530;2023-03-01T04:26:03;2.44;73.87
73133;DHT22;61320;52.008;4.530;2023-03-01T04:28:32;2.39;74.04
73133;DHT22;61320;52.008;4.530;2023-03-01T04:31:06;2.41;74.20
73133;DHT22;61320;52.008;4.530;2023-03-01T04:33:43;2.44;74.17
73133;DHT22;61320;52.008;4.530;2023-03-01T04:36:10;2.44;74.23
73133;DHT22;61320;52.008;4.530;2023-03-01T04:38:37;2.45;74.27
73133;DHT22;61320;52.008;4.530;2023-03-01T04:41:05;2.48;74.34
73133;DHT22;61320;52.008;4.530;2023-03-01T04:43:31;2.46;74.24
73133;DHT22;61320;52.008;4.530;2023-03-01T04:46:04;2.49;74.22
73133;DHT22;61320;52.008;4.530;2023-03-01T04:48:32;2.48;74.06
73133;DHT22;61320;52.008;4.530;2023-03-01T04:51:00;2.49;74.10
73133;DHT22;61320;52.008;4.530;2023-03-01T04:53:26;2.49;73.78
73133;DHT22;61320;52.008;4.530;2023-03-01T04:55:54;2.38;74.07
73133;DHT22;61320;52.008;4.530;2023-03-01T04:58:19;2.41;74.04
73133;DHT22;61320;52.008;4.530;2023-03-01T05:00:45;2.38;74.13
73133;DHT22;61320;52.008;4.530;2023-03-01T05:03:10;2.41;74.01
73133;DHT22;61320;52.008;4.530;2023-03-01T05:05:39;2.35;74.01
73133;DHT22;61320;52.008;4.530;2023-03-01T05:08:06;2.37;73.93
73133;DHT22;61320;52.008;4.530;2023-03-01T05:10:35;2.29;74.15
73133;DHT22;61320;52.008;4.530;2023-03-01T05:13:02;2.27;74.26
73133;DHT22;61320;52.008;4.530;2023-03-01T05:15:30;2.27;74.27
73133;DHT22;61320;52.008;4.530;2023-03-01T05:17:58;2.27;74.05
73133;DHT22;61320;52.008;4.530;2023-03-01T05:20:28;2.28;73.90
73133;DHT22;61320;52.008;4.530;2023-03-01T05:22:57;2.25;73.77
73133;DHT22;61320;52.008;4.530;2023-03-01T05:25:24;2.22;73.72
73133;DHT22;61320;52.008;4.530;2023-03-01T05:27:50;2.21;73.36
73133;DHT22;61320;52.008;4.530;2023-03-01T05:30:16;2.15;73.51
73133;DHT22;61320;52.008;4.530;2023-03-01T05:32:45;2.13;73.52
73133;DHT22;61320;52.008;4.530;2023-03-01T05:35:16;2.14;73.45
73133;DHT22;61320;52.008;4.530;2023-03-01T05:37:47;2.10;73.26
73133;DHT22;61320;52.008;4.530;2023-03-01T05:40:19;2.06;73.17
73133;DHT22;61320;52.008;4.530;2023-03-01T05:42:47;2.04;72.95
73133;DHT22;61320;52.008;4.530;2023-03-01T05:45:13;2.01;72.93
73133;DHT22;61320;52.008;4.530;2023-03-01T05:47:44;1.98;72.96
73133;DHT22;61320;52.008;4.530;2023-03-01T05:50:13;1.96;73.10
73133;DHT22;61320;52.008;4.530;2023-03-01T05:52:39;1.96;73.21
73133;DHT22;61320;52.008;4.530;2023-03-01T05:55:05;1.91;73.09
73133;DHT22;61320;52.008;4.530;2023-03-01T05:57:31;1.94;73.01
73133;DHT22;61320;52.008;4.530;2023-03-01T05:59:57;1.91;72.97
73133;DHT22;61320;52.008;4.530;2023-03-01T06:02:22;1.91;73.02
73133;DHT22;61320;52.008;4.530;2023-03-01T06:04:48;1.91;72.88
73133;DHT22;61320;52.008;4.530;2023-03-01T06:07:13;1.90;72.81
73133;DHT22;61320;52.008;4.530;2023-03-01T06:09:39;1.86;72.75
73133;DHT22;61320;52.008;4.530;2023-03-01T06:12:04;1.84;72.83
73133;DHT22;61320;52.008;4.530;2023-03-01T06:14:30;1.83;72.87
73133;DHT22;61320;52.008;4.530;2023-03-01T06:16:55;1.83;72.79
73133;DHT22;61320;52.008;4.530;2023-03-01T06:19:21;1.81;72.83
73133;DHT22;61320;52.008;4.530;2023-03-01T06:21:46;1.78;72.83
73133;DHT22;61320;52.008;4.530;2023-03-01T06:24:12;1.77;72.75
73133;DHT22;61320;52.008;4.530;2023-03-01T06:26:37;1.78;72.78
73133;DHT22;61320;52.008;4.530;2023-03-01T06:29:02;1.78;72.77
73133;DHT22;61320;52.008;4.530;2023-03-01T06:31:28;1.78;72.71
73133;DHT22;61320;52.008;4.530;2023-03-01T06:33:53;1.76;72.78
73133;DHT22;61320;52.008;4.530;2023-03-01T06:36:19;1.74;72.64
73133;DHT22;61320;52.008;4.530;2023-03-01T06:38:46;1.74;72.52
73133;DHT22;61320;52.008;4.530;2023-03-01T06:41:11;1.71;72.78
73133;DHT22;61320;52.008;4.530;2023-03-01T06:43:37;1.70;72.59
73133;DHT22;61320;52.008;4.530;2023-03-01T06:46:06;1.71;72.76
73133;DHT22;61320;52.008;4.530;2023-03-01T06:48:33;1.73;72.64
73133;DHT22;61320;52.008;4.530;2023-03-01T06:50:59;1.76;72.63
73133;DHT22;61320;52.008;4.530;2023-03-01T06:53:29;1.71;72.51
73133;DHT22;61320;52.008;4.530;2023-03-01T06:55:58;1.74;72.53
73133;DHT22;61320;52.008;4.530;2023-03-01T06:58:25;1.76;72.61
73133;DHT22;61320;52.008;4.530;2023-03-01T07:00:52;1.78;72.60
73133;DHT22;61320;52.008;4.530;2023-03-01T07:03:17;1.80;72.50
73133;DHT22;61320;52.008;4.530;2023-03-01T07:05:42;1.80;72.43
73133;DHT22;61320;52.008;4.530;2023-03-01T07:08:09;1.80;72.46
73133;DHT22;61320;52.008;4.530;2023-03-01T07:10:35;1.81;72.43
73133;DHT22;61320;52.008;4.530;2023-03-01T07:13:00;1.81;72.54
73133;DHT22;61320;52.008;4.530;2023-03-01T07:15:27;1.81;72.60
73133;DHT22;61320;52.008;4.530;2023-03-01T07:17:53;1.83;72.58
73133;DHT22;61320;52.008;4.530;2023-03-01T07:20:19;1.84;72.62
73133;DHT22;61320;52.008;4.530;2023-03-01T07:22:50;1.86;72.68
73133;DHT22;61320;52.008;4.530;2023-03-01T07:25:15;1.87;72.72
73133;DHT22;61320;52.008;4.530;2023-03-01T07:27:41;1.88;72.63
73133;DHT22;61320;52.008;4.530;2023-03-01T07:30:07;1.90;72.73
73133;DHT22;61320;52.008;4.530;2023-03-01T07:32:33;1.96;72.84
73133;DHT22;61320;52.008;4.530;2023-03-01T07:34:58;1.97;72.84
73133;DHT22;61320;52.008;4.530;2023-03-01T07:37:24;2.04;72.84
73133;DHT22;61320;52.008;4.530;2023-03-01T07:39:49;2.04;72.92
73133;DHT22;61320;52.008;4.530;2023-03-01T07:42:15;2.06;73.04
73133;DHT22;61320;52.008;4.530;2023-03-01T07:44:40;2.10;73.03
73133;DHT22;61320;52.008;4.530;2023-03-01T07:47:07;2.14;73.11
73133;DHT22;61320;52.008;4.530;2023-03-01T07:49:32;2.21;73.13
73133;DHT22;61320;52.008;4.530;2023-03-01T07:51:58;2.24;73.17
73133;DHT22;61320;52.008;4.530;2023-03-01T07:54:23;2.31;73.17
73133;DHT22;61320;52.008;4.530;2023-03-01T07:56:49;2.32;73.14
73133;DHT22;61320;52.008;4.530;2023-03-01T07:59:14;2.34;73.19
73133;DHT22;61320;52.008;4.530;2023-03-01T08:01:40;2.35;73.27
73133;DHT22;61320;52.008;4.530;2023-03-01T08:04:07;2.41;73.46
73133;DHT22;61320;52.008;4.530;2023-03-01T08:06:34;2.45;73.63
73133;DHT22;61320;52.008;4.530;2023-03-01T08:09:00;2.49;73.64
73133;DHT22;61320;52.008;4.530;2023-03-01T08:11:26;2.52;73.96
73133;DHT22;61320;52.008;4.530;2023-03-01T08:13:53;2.58;73.98
73133;DHT22;61320;52.008;4.530;2023-03-01T08:16:19;2.63;74.10
73133;DHT22;61320;52.008;4.530;2023-03-01T08:18:44;2.66;74.46
73133;DHT22;61320;52.008;4.530;2023-03-01T08:21:15;2.72;74.73
73133;DHT22;61320;52.008;4.530;2023-03-01T08:23:41;2.80;74.77
73133;DHT22;61320;52.008;4.530;2023-03-01T08:26:16;2.85;75.04
73133;DHT22;61320;52.008;4.530;2023-03-01T08:28:42;2.90;75.07
73133;DHT22;61320;52.008;4.530;2023-03-01T08:31:26;3.01;74.91
73133;DHT22;61320;52.008;4.530;2023-03-01T08:33:55;3.07;75.00
73133;DHT22;61320;52.008;4.530;2023-03-01T08:36:23;3.10;75.05
73133;DHT22;61320;52.008;4.530;2023-03-01T08:38:49;3.17;75.05
73133;DHT22;61320;52.008;4.530;2023-03-01T08:41:15;3.28;74.77
73133;DHT22;61320;52.008;4.530;2023-03-01T08:43:41;3.35;74.77
73133;DHT22;61320;52.008;4.530;2023-03-01T08:46:06;3.38;74.39
73133;DHT22;61320;52.008;4.530;2023-03-01T08:48:32;3.45;74.27
73133;DHT22;61320;52.008;4.530;2023-03-01T08:51:07;3.55;74.42
73133;DHT22;61320;52.008;4.530;2023-03-01T08:53:33;3.62;74.25
73133;DHT22;61320;52.008;4.530;2023-03-01T08:56:00;3.71;73.89
73133;DHT22;61320;52.008;4.530;2023-03-01T08:58:28;3.81;73.42
73133;DHT22;61320;52.008;4.530;2023-03-01T09:00:53;3.85;73.22
73133;DHT22;61320;52.008;4.530;2023-03-01T09:03:19;3.93;72.94
73133;DHT22;61320;52.008;4.530;2023-03-01T09:05:44;4.03;72.98
73133;DHT22;61320;52.008;4.530;2023-03-01T09:08:11;4.18;72.74
73133;DHT22;61320;52.008;4.530;2023-03-01T09:10:38;4.36;72.19
73133;DHT22;61320;52.008;4.530;2023-03-01T09:13:04;4.55;71.78
73133;DHT22;61320;52.008;4.530;2023-03-01T09:15:30;4.61;71.09
73133;DHT22;61320;52.008;4.530;2023-03-01T09:17:55;4.68;71.24
73133;DHT22;61320;52.008;4.530;2023-03-01T09:20:20;4.72;70.86
73133;DHT22;61320;52.008;4.530;2023-03-01T09:22:46;4.81;71.12
73133;DHT22;61320;52.008;4.530;2023-03-01T09:25:12;4.92;71.10
73133;DHT22;61320;52.008;4.530;2023-03-01T09:27:37;5.00;70.78
73133;DHT22;61320;52.008;4.530;2023-03-01T09:30:03;5.18;70.51
73133;DHT22;61320;52.008;4.530;2023-03-01T09:32:32;5.40;70.00
73133;DHT22;61320;52.008;4.530;2023-03-01T09:34:58;5.67;70.08
73133;DHT22;61320;52.008;4.530;2023-03-01T09:37:29;6.01;68.53
73133;DHT22;61320;52.008;4.530;2023-03-01T09:39:54;6.33;67.85
73133;DHT22;61320;52.008;4.530;2023-03-01T09:42:21;6.53;66.99
73133;DHT22;61320;52.008;4.530;2023-03-01T09:45:05;6.67;66.99
73133;DHT22;61320;52.008;4.530;2023-03-01T09:47:34;6.76;65.10
73133;DHT22;61320;52.008;4.530;2023-03-01T09:50:17;6.92;67.00
73133;DHT22;61320;52.008;4.530;2023-03-01T09:53:10;7.14;66.04
73133;DHT22;61320;52.008;4.530;2023-03-01T09:55:50;7.32;65.11
73133;DHT22;61320;52.008;4.530;2023-03-01T09:58:31;7.56;63.83
73133;DHT22;61320;52.008;4.530;2023-03-01T10:01:23;7.84;60.92
73133;DHT22;61320;52.008;4.530;2023-03-01T10:09:39;8.31;59.31
73133;DHT22;61320;52.008;4.530;2023-03-01T10:12:10;8.49;57.93
73133;DHT22;61320;52.008;4.530;2023-03-01T10:14:43;8.63;56.40
73133;DHT22;61320;52.008;4.530;2023-03-01T10:17:24;8.91;56.21
73133;DHT22;61320;52.008;4.530;2023-03-01T10:19:50;9.17;54.31
73133;DHT22;61320;52.008;4.530;2023-03-01T10:22:28;9.44;53.20
73133;DHT22;61320;52.008;4.530;2023-03-01T10:24:58;9.81;54.65
73133;DHT22;61320;52.008;4.530;2023-03-01T10:27:51;10.21;51.42
73133;DHT22;61320;52.008;4.530;2023-03-01T10:30:34;10.55;50.61
73133;DHT22;61320;52.008;4.530;2023-03-01T10:33:01;10.74;49.83
73133;DHT22;61320;52.008;4.530;2023-03-01T10:35:29;10.77;48.67
73133;DHT22;61320;52.008;4.530;2023-03-01T10:38:12;10.78;47.82
73133;DHT22;61320;52.008;4.530;2023-03-01T10:40:55;10.63;47.07
73133;DHT22;61320;52.008;4.530;2023-03-01T10:43:29;10.50;49.15
73133;DHT22;61320;52.008;4.530;2023-03-01T10:45:57;10.47;49.21
73133;DHT22;61320;52.008;4.530;2023-03-01T10:48:25;10.43;47.67
73133;DHT22;61320;52.008;4.530;2023-03-01T10:51:04;10.36;48.96
73133;DHT22;61320;52.008;4.530;2023-03-01T10:53:49;10.27;47.28
73133;DHT22;61320;52.008;4.530;2023-03-01T10:56:15;10.16;48.46
73133;DHT22;61320;52.008;4.530;2023-03-01T10:59:01;10.21;50.27
73133;DHT22;61320;52.008;4.530;2023-03-01T11:01:30;10.30;49.41
73133;DHT22;61320;52.008;4.530;2023-03-01T11:06:37;10.36;48.13
73133;DHT22;61320;52.008;4.530;2023-03-01T11:09:19;10.37;48.26
73133;DHT22;61320;52.008;4.530;2023-03-01T11:11:45;10.34;47.46
73133;DHT22;61320;52.008;4.530;2023-03-01T11:14:26;10.30;49.11
73133;DHT22;61320;52.008;4.530;2023-03-01T11:17:14;10.27;49.15
73133;DHT22;61320;52.008;4.530;2023-03-01T11:19:40;10.29;49.17
73133;DHT22;61320;52.008;4.530;2023-03-01T11:22:20;10.34;48.95
73133;DHT22;61320;52.008;4.530;2023-03-01T11:24:50;10.37;49.06
73133;DHT22;61320;52.008;4.530;2023-03-01T11:27:24;10.37;48.98
73133;DHT22;61320;52.008;4.530;2023-03-01T11:32:26;10.32;50.41
73133;DHT22;61320;52.008;4.530;2023-03-01T11:37:52;10.23;48.07
73133;DHT22;61320;52.008;4.530;2023-03-01T11:43:11;10.17;49.13
73133;DHT22;61320;52.008;4.530;2023-03-01T11:51:06;10.06;47.38
73133;DHT22;61320;52.008;4.530;2023-03-01T11:56:50;9.97;47.65
73133;DHT22;61320;52.008;4.530;2023-03-01T11:59:25;9.97;48.50
73133;DHT22;61320;52.008;4.530;2023-03-01T12:05:00;9.99;49.89
73133;DHT22;61320;52.008;4.530;2023-03-01T12:08:33;10.05;49.67
73133;DHT22;61320;52.008;4.530;2023-03-01T12:10:30;10.12;49.79
73133;DHT22;61320;52.008;4.530;2023-03-01T12:16:20;10.16;49.55
73133;DHT22;61320;52.008;4.530;2023-03-01T12:24:52;10.37;48.77
73133;DHT22;61320;52.008;4.530;2023-03-01T12:30:25;10.41;48.16
73133;DHT22;61320;52.008;4.530;2023-03-01T12:42:35;10.43;46.92
73133;DHT22;61320;52.008;4.530;2023-03-01T12:47:31;10.51;47.56
73133;DHT22;61320;52.008;4.530;2023-03-01T12:50:13;10.54;46.32
73133;DHT22;61320;52.008;4.530;2023-03-01T12:52:46;10.57;47.66
73133;DHT22;61320;52.008;4.530;2023-03-01T12:58:20;10.65;46.63
73133;DHT22;61320;52.008;4.530;2023-03-01T13:06:57;10.64;47.92
73133;DHT22;61320;52.008;4.530;2023-03-01T13:12:50;10.71;45.84
73133;DHT22;61320;52.008;4.530;2023-03-01T13:15:24;10.71;43.38
73133;DHT22;61320;52.008;4.530;2023-03-01T13:17:55;10.71;45.82
73133;DHT22;61320;52.008;4.530;2023-03-01T13:20:45;10.78;45.80
73133;DHT22;61320;52.008;4.530;2023-03-01T13:26:09;10.79;45.79
73133;DHT22;61320;52.008;4.530;2023-03-01T13:33:57;10.74;43.21
73133;DHT22;61320;52.008;4.530;2023-03-01T13:39:00;10.75;44.31
73133;DHT22;61320;52.008;4.530;2023-03-01T13:46:47;10.91;45.37
73133;DHT22;61320;52.008;4.530;2023-03-01T13:49:20;10.92;45.16
73133;DHT22;61320;52.008;4.530;2023-03-01T13:51:48;10.92;45.32
73133;DHT22;61320;52.008;4.530;2023-03-01T13:54:16;10.94;43.66
73133;DHT22;61320;52.008;4.530;2023-03-01T13:56:44;10.96;43.42
73133;DHT22;61320;52.008;4.530;2023-03-01T13:59:16;10.96;42.90
73133;DHT22;61320;52.008;4.530;2023-03-01T14:01:42;10.99;42.43
73133;DHT22;61320;52.008;4.530;2023-03-01T14:04:29;10.99;43.46
73133;DHT22;61320;52.008;4.530;2023-03-01T14:07:22;11.02;44.88
73133;DHT22;61320;52.008;4.530;2023-03-01T14:09:58;11.11;43.74
73133;DHT22;61320;52.008;4.530;2023-03-01T14:17:44;11.06;43.03
73133;DHT22;61320;52.008;4.530;2023-03-01T14:20:19;11.02;42.53
73133;DHT22;61320;52.008;4.530;2023-03-01T14:22:46;11.01;43.43
73133;DHT22;61320;52.008;4.530;2023-03-01T14:28:13;10.99;42.81
73133;DHT22;61320;52.008;4.530;2023-03-01T14:30:49;10.98;43.42
73133;DHT22;61320;52.008;4.530;2023-03-01T14:36:12;11.02;43.89
73133;DHT22;61320;52.008;4.530;2023-03-01T14:43:38;11.12;44.85
73133;DHT22;61320;52.008;4.530;2023-03-01T14:46:05;11.16;43.31
73133;DHT22;61320;52.008;4.530;2023-03-01T14:48:32;11.11;42.95
73133;DHT22;61320;52.008;4.530;2023-03-01T14:50:57;11.06;42.06
73133;DHT22;61320;52.008;4.530;2023-03-01T14:53:27;11.05;42.31
73133;DHT22;61320;52.008;4.530;2023-03-01T14:56:01;10.98;43.27
73133;DHT22;61320;52.008;4.530;2023-03-01T14:58:32;10.99;42.61
73133;DHT22;61320;52.008;4.530;2023-03-01T15:01:01;10.88;41.62
73133;DHT22;61320;52.008;4.530;2023-03-01T15:03:35;10.81;41.60
73133;DHT22;61320;52.008;4.530;2023-03-01T15:06:04;10.82;43.37
73133;DHT22;61320;52.008;4.530;2023-03-01T15:08:32;10.78;42.19
73133;DHT22;61320;52.008;4.530;2023-03-01T15:13:30;10.79;44.25
73133;DHT22;61320;52.008;4.530;2023-03-01T15:16:12;10.75;44.07
73133;DHT22;61320;52.008;4.530;2023-03-01T15:18:48;10.65;43.53
73133;DHT22;61320;52.008;4.530;2023-03-01T15:21:23;10.63;43.56
73133;DHT22;61320;52.008;4.530;2023-03-01T15:23:54;10.58;43.56
73133;DHT22;61320;52.008;4.530;2023-03-01T15:26:30;10.55;43.11
73133;DHT22;61320;52.008;4.530;2023-03-01T15:28:58;10.54;43.77
73133;DHT22;61320;52.008;4.530;2023-03-01T15:34:08;10.44;42.93
73133;DHT22;61320;52.008;4.530;2023-03-01T15:36:40;10.36;42.92
73133;DHT22;61320;52.008;4.530;2023-03-01T15:42:11;10.27;44.71
73133;DHT22;61320;52.008;4.530;2023-03-01T15:44:40;10.27;46.08
73133;DHT22;61320;52.008;4.530;2023-03-01T15:47:31;10.24;46.24
73133;DHT22;61320;52.008;4.530;2023-03-01T15:49:59;10.20;46.14
73133;DHT22;61320;52.008;4.530;2023-03-01T15:52:34;10.20;47.04
73133;DHT22;61320;52.008;4.530;2023-03-01T15:55:14;10.18;46.55
73133;DHT22;61320;52.008;4.530;2023-03-01T15:57:40;10.12;47.10
73133;DHT22;61320;52.008;4.530;2023-03-01T16:00:08;10.07;47.51
73133;DHT22;61320;52.008;4.530;2023-03-01T16:02:40;10.02;47.91
73133;DHT22;61320;52.008;4.530;2023-03-01T16:05:17;10.02;47.91
73133;DHT22;61320;52.008;4.530;2023-03-01T16:07:43;9.89;47.46
73133;DHT22;61320;52.008;4.530;2023-03-01T16:10:09;9.78;48.50
73133;DHT22;61320;52.008;4.530;2023-03-01T16:12:34;9.75;48.72
73133;DHT22;61320;52.008;4.530;2023-03-01T16:15:00;9.69;49.33
73133;DHT22;61320;52.008;4.530;2023-03-01T16:17:25;9.69;48.53
73133;DHT22;61320;52.008;4.530;2023-03-01T16:19:51;9.61;49.07
73133;DHT22;61320;52.008;4.530;2023-03-01T16:22:16;9.51;48.64
73133;DHT22;61320;52.008;4.530;2023-03-01T16:24:42;9.35;49.26
73133;DHT22;61320;52.008;4.530;2023-03-01T16:27:07;9.28;49.86
73133;DHT22;61320;52.008;4.530;2023-03-01T16:29:33;9.24;50.68
73133;DHT22;61320;52.008;4.530;2023-03-01T16:32:02;9.18;50.44
73133;DHT22;61320;52.008;4.530;2023-03-01T16:34:27;9.13;51.07
73133;DHT22;61320;52.008;4.530;2023-03-01T16:36:53;9.06;50.67
73133;DHT22;61320;52.008;4.530;2023-03-01T16:39:18;8.96;51.31
73133;DHT22;61320;52.008;4.530;2023-03-01T16:41:44;8.87;50.35
73133;DHT22;61320;52.008;4.530;2023-03-01T16:44:09;8.77;51.61
73133;DHT22;61320;52.008;4.530;2023-03-01T16:46:35;8.72;51.50
73133;DHT22;61320;52.008;4.530;2023-03-01T16:49:00;8.60;51.45
73133;DHT22;61320;52.008;4.530;2023-03-01T16:51:26;8.52;51.60
73133;DHT22;61320;52.008;4.530;2023-03-01T16:53:52;8.48;52.27
73133;DHT22;61320;52.008;4.530;2023-03-01T16:56:18;8.46;52.35
73133;DHT22;61320;52.008;4.530;2023-03-01T16:58:44;8.39;52.08
73133;DHT22;61320;52.008;4.530;2023-03-01T17:01:12;8.29;52.11
73133;DHT22;61320;52.008;4.530;2023-03-01T17:03:39;8.21;52.39
73133;DHT22;61320;52.008;4.530;2023-03-01T17:06:07;8.22;53.29
73133;DHT22;61320;52.008;4.530;2023-03-01T17:08:35;8.14;53.50
73133;DHT22;61320;52.008;4.530;2023-03-01T17:11:03;8.10;53.46
73133;DHT22;61320;52.008;4.530;2023-03-01T17:13:29;8.04;53.97
73133;DHT22;61320;52.008;4.530;2023-03-01T17:15:54;7.97;53.91
73133;DHT22;61320;52.008;4.530;2023-03-01T17:18:19;7.94;54.64
73133;DHT22;61320;52.008;4.530;2023-03-01T17:20:45;7.90;54.44
73133;DHT22;61320;52.008;4.530;2023-03-01T17:23:10;7.86;54.44
73133;DHT22;61320;52.008;4.530;2023-03-01T17:25:41;7.81;54.93
73133;DHT22;61320;52.008;4.530;2023-03-01T17:28:07;7.76;54.90
73133;DHT22;61320;52.008;4.530;2023-03-01T17:30:33;7.71;54.76
73133;DHT22;61320;52.008;4.530;2023-03-01T17:32:58;7.60;54.79
73133;DHT22;61320;52.008;4.530;2023-03-01T17:35:23;7.55;55.40
73133;DHT22;61320;52.008;4.530;2023-03-01T17:37:49;7.49;55.78
73133;DHT22;61320;52.008;4.530;2023-03-01T17:40:14;7.43;56.46
73133;DHT22;61320;52.008;4.530;2023-03-01T17:42:40;7.38;55.57
73133;DHT22;61320;52.008;4.530;2023-03-01T17:45:06;7.35;55.81
73133;DHT22;61320;52.008;4.530;2023-03-01T17:47:32;7.29;56.71
73133;DHT22;61320;52.008;4.530;2023-03-01T17:49:57;7.22;56.36
73133;DHT22;61320;52.008;4.530;2023-03-01T17:52:22;7.22;56.73